Hauptseite
METAR-TAF:

METAR-TAF

Flughäfen :

Peking, China

Flughafen Peking

Breite: 39-56N, Länge: 116-17E, Höhe: 55 m

Beobachtung

Neuester Wetterbericht von vor 38 Minuten, um 16:00 UTC
Wind 2 kt aus unterschiedlichen Richtungen
Temperatur 24°C
Luftfeuchtigkeit 94%
Luftdruck 1010 hPa
Sichtweite 10 km oder mehr
keine Wolken unter 1500 m und keine Kumulonimbus oder Gewitterwolken

METAR: ZBAA 271600Z VRB01MPS CAVOK 24/23 Q1010 NOSIG

Zeit: 00:38 (16:38 UTC)

Prognose

Neuester Wetterbericht von vor 7 Stunden und 18 Minuten, um 09:20 UTC
Gültige Prognose vom 27 um 12 UTC bis 28 um 12 UTC
Wind 8 kt aus Süd/Südost
Sichtweite 10 km oder mehr
keine Wolken unter 1500 m und keine Kumulonimbus oder Gewitterwolken

TAF: ZBAA 270920Z 2712/2812 16004MPS CAVOK TX30/2807Z TN22/2721Z

Wetterbeobachtungen und Prognosen von mehr als 4000 Flughäfen (METAR und TAF Bericht).

Die verfügbaren Stationen werden durch gelbe und rote Markierungen auf der Karte dargestellt.

Führen Sie die Maus auf sie, um den Namen der Station zu sehen.

Darauf klicken, um die Beobachtung von Wetterbeobachtungen und Prognosen zu sehen.

Um die Karte zu ändern : klicken Sie auf den grünen Tasten mit einem schwarzen Kreuz Zum Vergrößern, auf den grünen Button mit einem Gedankenstrich zu verkleinern, oder auf die grünen Pfeile für benachbarte Karten.


METAR-TAF: